createdAt,value
2023-02-12T00:01:39.058Z,67600.19
2023-02-12T00:04:06.416Z,67600.75
2023-02-12T00:06:33.589Z,67600.41
2023-02-12T00:09:03.817Z,67601.31
2023-02-12T00:11:30.931Z,67603.94
2023-02-12T00:13:58.343Z,67597.00
2023-02-12T00:16:27.374Z,67600.34
2023-02-12T00:18:59.455Z,67598.84
2023-02-12T00:21:29.809Z,67600.75
2023-02-12T00:23:57.164Z,67599.63
2023-02-12T00:26:24.760Z,67601.88
2023-02-12T00:28:59.950Z,67597.56
2023-02-12T00:31:31.613Z,67600.75
2023-02-12T00:34:00.073Z,67606.00
2023-02-12T00:36:32.844Z,67605.41
2023-02-12T00:39:02.726Z,67600.75
2023-02-12T00:41:30.442Z,67601.88
2023-02-12T00:44:06.537Z,67603.00
2023-02-12T00:46:37.855Z,67603.56
2023-02-12T00:49:08.215Z,67604.50
2023-02-12T00:51:44.663Z,67600.75
2023-02-12T00:54:12.828Z,67599.63
2023-02-12T00:56:40.365Z,67599.63
2023-02-12T00:59:08.162Z,67598.13
2023-02-12T01:01:36.149Z,67601.31
2023-02-12T01:04:12.999Z,67602.09
2023-02-12T01:06:45.875Z,67606.53
2023-02-12T01:09:18.383Z,67599.63
2023-02-12T01:11:50.081Z,67599.63
2023-02-12T01:14:18.988Z,67601.09
2023-02-12T01:16:47.013Z,67599.63
2023-02-12T01:19:23.062Z,67602.78
2023-02-12T01:21:50.987Z,67603.56
2023-02-12T01:24:21.475Z,67611.06
2023-02-12T01:26:48.560Z,67597.19
2023-02-12T01:29:18.650Z,67602.25
2023-02-12T01:31:48.933Z,67605.25
2023-02-12T01:34:17.831Z,67606.75
2023-02-12T01:36:45.078Z,67604.50
2023-02-12T01:39:13.684Z,67605.63
2023-02-12T01:41:45.861Z,67604.13
2023-02-12T01:44:25.670Z,67600.41
2023-02-12T01:47:06.299Z,67606.19
2023-02-12T01:49:46.089Z,67604.69
2023-02-12T01:52:25.161Z,67611.63
2023-02-12T01:54:57.110Z,67602.09
2023-02-12T01:57:28.743Z,67605.81
2023-02-12T01:59:58.541Z,67606.94
2023-02-12T02:02:26.561Z,67610.69
2023-02-12T02:04:57.462Z,67606.19
2023-02-12T02:07:24.703Z,67603.19
2023-02-12T02:09:53.105Z,67602.44
2023-02-12T02:12:38.867Z,67606.19
2023-02-12T02:15:06.498Z,67600.41
2023-02-12T02:17:45.843Z,67600.94
2023-02-12T02:20:32.990Z,67606.59
2023-02-12T02:23:24.134Z,67616.13
2023-02-12T02:26:29.254Z,67603.78
2023-02-12T02:29:08.893Z,67609.00
2023-02-12T02:31:42.812Z,67607.88
2023-02-12T02:34:29.903Z,67606.41
2023-02-12T02:37:10.975Z,67606.94
2023-02-12T02:39:44.344Z,67603.19
2023-02-12T02:42:25.546Z,67600.75
2023-02-12T02:44:55.336Z,67608.44
2023-02-12T02:47:31.527Z,67604.13
2023-02-12T02:50:04.772Z,67602.78
2023-02-12T02:52:51.406Z,67597.38
2023-02-12T02:55:20.629Z,67601.09
2023-02-12T02:57:56.120Z,67602.44
2023-02-12T03:00:34.824Z,67604.50
2023-02-12T03:03:25.897Z,67600.75
2023-02-12T03:05:57.423Z,67601.88
2023-02-12T03:08:34.237Z,67600.75
2023-02-12T03:11:10.936Z,67602.25
2023-02-12T03:13:57.048Z,67601.88
2023-02-12T03:16:50.268Z,67593.84
2023-02-12T03:19:28.201Z,67600.75
2023-02-12T03:22:13.850Z,67602.25
2023-02-12T03:24:53.878Z,67597.94
2023-02-12T03:27:41.006Z,67601.47
2023-02-12T03:30:09.005Z,67597.38
2023-02-12T03:32:52.592Z,67593.97
2023-02-12T03:35:23.592Z,67601.31
2023-02-12T03:38:06.891Z,67598.47
2023-02-12T03:40:51.421Z,67597.38
2023-02-12T03:43:33.669Z,67597.56
2023-02-12T03:46:17.567Z,67599.63
2023-02-12T03:48:57.331Z,67600.53
2023-02-12T03:51:34.817Z,67599.63
2023-02-12T03:54:07.117Z,67597.38
2023-02-12T03:56:44.165Z,67592.28
2023-02-12T03:59:12.043Z,67591.19
2023-02-12T04:01:39.173Z,67601.69
2023-02-12T04:04:07.860Z,67593.44
2023-02-12T04:06:35.284Z,67592.28
2023-02-12T04:09:07.156Z,67592.88
2023-02-12T04:11:54.444Z,67592.28
2023-02-12T04:14:36.516Z,67597.53
2023-02-12T04:17:19.878Z,67591.72
2023-02-12T04:20:10.659Z,67587.78
2023-02-12T04:22:40.683Z,67585.72
2023-02-12T04:25:23.369Z,67590.75
2023-02-12T04:27:59.968Z,67585.53
2023-02-12T04:30:40.709Z,67591.50
2023-02-12T04:33:15.731Z,67593.22
2023-02-12T04:35:54.371Z,67588.91
2023-02-12T04:38:57.428Z,67591.50
2023-02-12T04:41:25.808Z,67586.09
2023-02-12T04:43:52.985Z,67588.34
2023-02-12T04:46:20.065Z,67590.41
2023-02-12T04:48:58.881Z,67587.22
2023-02-12T04:51:25.986Z,67586.66
2023-02-12T04:53:53.119Z,67586.47
2023-02-12T04:56:20.293Z,67588.16
2023-02-12T04:58:47.362Z,67585.91
2023-02-12T05:01:17.324Z,67582.72
2023-02-12T05:03:44.770Z,67587.56
2023-02-12T05:06:12.041Z,67581.59
2023-02-12T05:08:39.420Z,67579.91
2023-02-12T05:11:09.026Z,67584.41
2023-02-12T05:13:39.204Z,67584.75
2023-02-12T05:16:10.076Z,67581.78
2023-02-12T05:18:37.640Z,67587.56
2023-02-12T05:21:05.871Z,67590.19
2023-02-12T05:23:36.837Z,67585.91
2023-02-12T05:26:07.773Z,67585.53
2023-02-12T05:28:38.078Z,67586.47
2023-02-12T05:31:09.110Z,67582.50
2023-02-12T05:33:40.473Z,67580.09
2023-02-12T05:36:12.753Z,67587.38
2023-02-12T05:38:44.833Z,67589.63
2023-02-12T05:41:23.286Z,67585.31
2023-02-12T05:43:54.034Z,67584.41
2023-02-12T05:46:24.137Z,67581.00
2023-02-12T05:48:55.981Z,67585.69
2023-02-12T05:51:28.102Z,67581.00
2023-02-12T05:54:05.023Z,67582.34
2023-02-12T05:56:42.230Z,67578.75
2023-02-12T05:59:23.778Z,67580.81
2023-02-12T06:01:51.835Z,67583.44
2023-02-12T06:04:25.023Z,67578.75
2023-02-12T06:06:56.834Z,67581.19
2023-02-12T06:09:26.629Z,67578.19
2023-02-12T06:11:53.679Z,67580.25
2023-02-12T06:14:21.898Z,67583.63
2023-02-12T06:16:55.902Z,67574.44
2023-02-12T06:19:24.350Z,67579.53
2023-02-12T06:21:51.646Z,67579.91
2023-02-12T06:24:20.972Z,67578.19
2023-02-12T06:26:52.333Z,67579.69
2023-02-12T06:29:20.827Z,67574.81
2023-02-12T06:31:48.668Z,67573.69
2023-02-12T06:34:19.229Z,67574.25
2023-02-12T06:36:47.623Z,67572.94
2023-02-12T06:39:17.111Z,67574.63
2023-02-12T06:41:47.265Z,67571.44
2023-02-12T06:44:14.352Z,67578.00
2023-02-12T06:46:41.856Z,67575.75
2023-02-12T06:49:12.401Z,67575.75
2023-02-12T06:51:41.338Z,67581.38
2023-02-12T06:54:29.386Z,67579.13
2023-02-12T06:56:56.492Z,67578.75
2023-02-12T06:59:23.669Z,67582.72
2023-02-12T07:01:50.860Z,67581.22
2023-02-12T07:04:17.952Z,67590.19
2023-02-12T07:06:50.152Z,67588.50
2023-02-12T07:09:19.847Z,67582.34
2023-02-12T07:11:46.990Z,67577.84
2023-02-12T07:14:17.778Z,67588.16
2023-02-12T07:16:45.130Z,67587.00
2023-02-12T07:19:13.403Z,67585.53
2023-02-12T07:21:40.597Z,67588.16
2023-02-12T07:24:08.216Z,67586.66
2023-02-12T07:26:40.487Z,67590.03
2023-02-12T07:29:08.022Z,67588.91
2023-02-12T07:31:35.201Z,67595.47
2023-02-12T07:34:02.451Z,67594.34
2023-02-12T07:36:35.840Z,67595.69
2023-02-12T07:39:07.102Z,67600.19
2023-02-12T07:41:35.876Z,67597.56
2023-02-12T07:44:10.179Z,67601.88
2023-02-12T07:46:49.099Z,67599.47
2023-02-12T07:49:22.547Z,67586.78
2023-02-12T07:51:50.995Z,67608.84
2023-02-12T07:54:20.668Z,67611.09
2023-02-12T07:56:47.815Z,67612.59
2023-02-12T07:59:19.507Z,67609.41
2023-02-12T08:01:52.036Z,67612.00
2023-02-12T08:04:32.887Z,67624.78
2023-02-12T08:07:00.094Z,67621.81
2023-02-12T08:09:31.218Z,67619.56
2023-02-12T08:11:59.597Z,67621.03
2023-02-12T08:14:27.466Z,67622.53
2023-02-12T08:16:59.828Z,67621.97
2023-02-12T08:19:30.071Z,67619.34
2023-02-12T08:22:01.566Z,67621.59
2023-02-12T08:24:34.209Z,67621.59
2023-02-12T08:27:01.752Z,67625.00
2023-02-12T08:29:31.841Z,67618.44
2023-02-12T08:32:03.555Z,67623.66
2023-02-12T08:34:33.757Z,67621.44
2023-02-12T08:37:09.685Z,67622.38
2023-02-12T08:39:39.597Z,67635.50
2023-02-12T08:42:06.648Z,67639.09
2023-02-12T08:44:33.815Z,67648.28
2023-02-12T08:47:00.969Z,67634.41
2023-02-12T08:49:32.623Z,67641.34
2023-02-12T08:52:13.724Z,67641.53
2023-02-12T08:54:42.370Z,67647.34
2023-02-12T08:57:16.906Z,67644.16
2023-02-12T08:59:51.474Z,67641.53
2023-02-12T09:02:21.347Z,67651.88
2023-02-12T09:04:48.428Z,67659.00
2023-02-12T09:07:15.464Z,67666.72
2023-02-12T09:09:45.312Z,67658.47
2023-02-12T09:12:12.424Z,67660.16
2023-02-12T09:14:39.499Z,67653.38
2023-02-12T09:19:54.553Z,67658.25
2023-02-12T09:22:21.882Z,67664.47
2023-02-12T09:24:54.710Z,67666.50
2023-02-12T09:27:22.980Z,67658.47
2023-02-12T09:29:54.730Z,67656.78
2023-02-12T09:32:21.868Z,67674.25
2023-02-12T09:34:50.953Z,67682.50
2023-02-12T09:37:18.028Z,67687.22
2023-02-12T09:39:50.150Z,67693.81
2023-02-12T09:42:55.531Z,67721.25
2023-02-12T09:45:26.650Z,67732.31
2023-02-12T09:48:18.505Z,67724.47
2023-02-12T09:50:56.597Z,67725.03
2023-02-12T09:53:30.363Z,67730.84
2023-02-12T09:55:58.137Z,67727.28
2023-02-12T09:58:38.336Z,67729.00
2023-02-12T10:01:17.978Z,67733.28
2023-02-12T10:03:47.750Z,67737.59
2023-02-12T10:06:19.115Z,67732.72
2023-02-12T10:09:01.782Z,67736.69
2023-02-12T10:11:37.021Z,67745.50
2023-02-12T10:14:44.751Z,67745.16
2023-02-12T10:18:02.202Z,67747.59
2023-02-12T10:20:51.955Z,67748.53
2023-02-12T10:23:21.300Z,67748.53
2023-02-12T10:25:54.455Z,67762.44
2023-02-12T10:28:42.807Z,67765.69
2023-02-12T10:31:23.422Z,67785.78
2023-02-12T10:33:54.814Z,67773.00
2023-02-12T10:36:42.874Z,67772.63
2023-02-12T10:39:12.687Z,67778.44
2023-02-12T10:42:02.870Z,67747.50
2023-02-12T10:44:31.208Z,67779.00
2023-02-12T10:47:05.202Z,67801.59
2023-02-12T10:49:35.390Z,67804.22
2023-02-12T10:52:30.926Z,67787.50
2023-02-12T10:54:58.189Z,67791.22
2023-02-12T10:57:29.662Z,67770.38
2023-02-12T11:00:16.205Z,67784.66
2023-02-12T11:03:23.183Z,67785.78
2023-02-12T11:05:54.392Z,67787.84
2023-02-12T11:08:36.219Z,67780.72
2023-02-12T11:11:19.700Z,67785.78
2023-02-12T11:13:54.356Z,67784.28
2023-02-12T11:16:36.740Z,67796.13
2023-02-12T11:19:09.123Z,67796.50
2023-02-12T11:21:44.046Z,67796.09
2023-02-12T11:24:36.435Z,67795.75
2023-02-12T11:27:15.535Z,67784.09
2023-02-12T11:29:53.825Z,67800.47
2023-02-12T11:32:20.997Z,67797.84
2023-02-12T11:35:12.657Z,67808.00
2023-02-12T11:37:43.406Z,67815.72
2023-02-12T11:40:19.117Z,67823.81
2023-02-12T11:42:59.842Z,67833.78
2023-02-12T11:45:52.808Z,67823.25
2023-02-12T11:48:27.479Z,67819.25
2023-02-12T11:50:58.180Z,67799.53
2023-02-12T11:53:42.834Z,67789.75
2023-02-12T11:56:12.933Z,67795.75
2023-02-12T11:58:45.871Z,67806.69
2023-02-12T12:01:20.209Z,67806.09
2023-02-12T12:04:03.174Z,67810.25
2023-02-12T12:06:57.253Z,67817.22
2023-02-12T12:09:37.687Z,67806.69
2023-02-12T12:12:43.100Z,67797.66
2023-02-12T12:15:42.350Z,67790.31
2023-02-12T12:19:03.865Z,67792.00
2023-02-12T12:22:16.089Z,67775.84
2023-02-12T12:25:10.198Z,67773.72
2023-02-12T12:28:08.429Z,67773.00
2023-02-12T12:30:51.831Z,67764.75
2023-02-12T12:33:39.819Z,67773.38
2023-02-12T12:36:14.685Z,67772.81
2023-02-12T12:38:58.430Z,67768.50
2023-02-12T12:41:40.877Z,67764.50
2023-02-12T12:44:38.856Z,67758.50
2023-02-12T12:47:27.762Z,67752.47
2023-02-12T12:50:08.407Z,67757.19
2023-02-12T12:53:06.736Z,67757.16
2023-02-12T12:56:26.295Z,67749.66
2023-02-12T12:59:12.107Z,67743.66
2023-02-12T13:02:17.350Z,67742.31
2023-02-12T13:04:59.452Z,67740.63
2023-02-12T13:07:54.499Z,67746.84
2023-02-12T13:10:46.221Z,67756.25
2023-02-12T13:13:36.157Z,67759.81
2023-02-12T13:16:40.304Z,67762.06
2023-02-12T13:19:27.674Z,67766.03
2023-02-12T13:22:21.278Z,67746.94
2023-02-12T13:25:26.526Z,67769.41
2023-02-12T13:27:56.437Z,67771.09
2023-02-12T13:30:36.958Z,67776.34
2023-02-12T13:33:15.739Z,67777.69
2023-02-12T13:35:47.201Z,67775.28
2023-02-12T13:38:26.133Z,67784.66
2023-02-12T13:41:02.384Z,67785.41
2023-02-12T13:43:47.441Z,67777.31
2023-02-12T13:46:25.260Z,67775.28
2023-02-12T13:49:18.840Z,67772.63
2023-02-12T13:52:14.252Z,67764.34
2023-02-12T13:54:57.536Z,67758.69
2023-02-12T13:57:24.611Z,67762.66
2023-02-12T13:59:56.196Z,67765.47
2023-02-12T14:02:29.648Z,67761.16
2023-02-12T14:05:00.644Z,67763.22
2023-02-12T14:07:46.962Z,67766.03
2023-02-12T14:10:26.362Z,67764.91
2023-02-12T14:13:12.182Z,67761.72
2023-02-12T14:15:45.407Z,67766.03
2023-02-12T14:18:36.689Z,67754.56
2023-02-12T14:21:12.788Z,67761.50
2023-02-12T14:23:46.862Z,67757.41
2023-02-12T14:26:16.334Z,67758.69
2023-02-12T14:29:00.127Z,67755.50
2023-02-12T14:31:27.865Z,67761.50
2023-02-12T14:34:11.291Z,67757.00
2023-02-12T14:36:49.677Z,67764.34
2023-02-12T14:39:24.530Z,67762.66
2023-02-12T14:42:06.694Z,67766.03
2023-02-12T14:44:49.412Z,67772.63
2023-02-12T14:47:36.454Z,67763.97
2023-02-12T14:50:37.395Z,67770.91
2023-02-12T14:53:13.824Z,67758.69
2023-02-12T14:55:47.109Z,67762.06
2023-02-12T14:58:25.760Z,67756.06
2023-02-12T15:01:02.568Z,67752.13
2023-02-12T15:03:40.033Z,67747.59
2023-02-12T15:06:23.735Z,67746.47
2023-02-12T15:09:02.724Z,67744.56
2023-02-12T15:11:40.077Z,67745.50
2023-02-12T15:14:19.683Z,67742.13
2023-02-12T15:16:56.611Z,67735.56
2023-02-12T15:19:44.787Z,67736.13
2023-02-12T15:22:25.799Z,67731.97
2023-02-12T15:24:53.263Z,67725.97
2023-02-12T15:27:24.704Z,67725.03
2023-02-12T15:29:53.883Z,67725.97
2023-02-12T15:32:29.590Z,67729.34
2023-02-12T15:34:56.907Z,67724.84
2023-02-12T15:37:28.502Z,67719.75
2023-02-12T15:40:02.370Z,67724.06
2023-02-12T15:42:35.857Z,67724.84
2023-02-12T15:45:33.123Z,67718.81
2023-02-12T15:48:08.345Z,67722.56
2023-02-12T15:50:47.102Z,67716.56
2023-02-12T15:53:17.769Z,67719.19
2023-02-12T15:55:50.344Z,67720.31
2023-02-12T15:58:24.937Z,67721.44
2023-02-12T16:00:53.527Z,67721.44
2023-02-12T16:03:35.416Z,67715.63
2023-02-12T16:06:17.120Z,67711.84
2023-02-12T16:09:01.814Z,67710.91
2023-02-12T16:11:30.882Z,67705.28
2023-02-12T16:14:08.868Z,67706.78
2023-02-12T16:17:01.931Z,67707.91
2023-02-12T16:19:43.238Z,67705.09
2023-02-12T16:22:19.626Z,67702.47
2023-02-12T16:24:50.412Z,67702.84
2023-02-12T16:27:19.124Z,67703.41
2023-02-12T16:29:52.600Z,67702.25
2023-02-12T16:32:43.375Z,67702.06
2023-02-12T16:35:13.299Z,67696.28
2023-02-12T16:38:20.650Z,67697.75
2023-02-12T16:41:15.270Z,67697.19
2023-02-12T16:43:42.555Z,67696.06
2023-02-12T16:46:11.111Z,67694.00
2023-02-12T16:48:44.721Z,67693.06
2023-02-12T16:51:32.792Z,67698.88
2023-02-12T16:54:05.391Z,67699.44
2023-02-12T16:56:38.855Z,67697.19
2023-02-12T16:59:06.875Z,67697.19
2023-02-12T17:01:35.626Z,67692.88
2023-02-12T17:04:08.637Z,67691.75
2023-02-12T17:06:35.791Z,67697.56
2023-02-12T17:09:03.448Z,67689.50
2023-02-12T17:11:31.009Z,67689.50
2023-02-12T17:14:06.521Z,67694.34
2023-02-12T17:16:36.610Z,67689.13
2023-02-12T17:19:06.704Z,67694.72
2023-02-12T17:21:44.583Z,67687.78
2023-02-12T17:24:29.708Z,67684.63
2023-02-12T17:27:03.526Z,67686.88
2023-02-12T17:29:39.968Z,67691.56
2023-02-12T17:32:09.325Z,67693.25
2023-02-12T17:34:48.582Z,67692.09
2023-02-12T17:37:18.108Z,67692.09
2023-02-12T17:39:45.486Z,67686.69
2023-02-12T17:42:12.687Z,67687.22
2023-02-12T17:44:40.194Z,67683.84
2023-02-12T17:47:07.620Z,67688.16
2023-02-12T17:49:40.052Z,67685.53
2023-02-12T17:52:07.652Z,67686.84
2023-02-12T17:54:34.845Z,67693.22
2023-02-12T17:57:02.100Z,67683.06
2023-02-12T17:59:29.785Z,67680.47
2023-02-12T18:01:57.124Z,67678.19
2023-02-12T18:04:24.266Z,67683.06
2023-02-12T18:06:54.373Z,67679.72
2023-02-12T18:09:21.441Z,67680.81
2023-02-12T18:11:48.859Z,67681.75
2023-02-12T18:14:15.952Z,67679.72
2023-02-12T18:16:43.371Z,67680.47
2023-02-12T18:19:10.650Z,67678.41
2023-02-12T18:21:38.775Z,67680.81
2023-02-12T18:24:06.588Z,67684.94
2023-02-12T18:26:36.687Z,67675.94
2023-02-12T18:29:03.780Z,67678.38
2023-02-12T18:31:33.408Z,67681.41
2023-02-12T18:34:00.676Z,67676.50
2023-02-12T18:36:28.045Z,67676.69
2023-02-12T18:38:55.204Z,67674.81
2023-02-12T18:41:26.788Z,67684.56
2023-02-12T18:43:54.929Z,67680.25
2023-02-12T18:46:29.084Z,67686.47
2023-02-12T18:48:57.265Z,67682.72
2023-02-12T18:51:27.131Z,67683.66
2023-02-12T18:53:56.514Z,67681.03
2023-02-12T18:56:24.176Z,67682.31
2023-02-12T18:58:57.938Z,67682.16
2023-02-12T19:01:28.631Z,67684.56
2023-02-12T19:04:00.148Z,67672.56
2023-02-12T19:06:28.672Z,67678.38
2023-02-12T19:09:01.593Z,67675.19
2023-02-12T19:11:30.337Z,67676.88
2023-02-12T19:13:58.222Z,67678.94
2023-02-12T19:16:26.704Z,67678.56
2023-02-12T19:18:56.033Z,67670.31
2023-02-12T19:21:26.240Z,67663.56
2023-02-12T19:23:54.997Z,67671.59
2023-02-12T19:26:22.709Z,67674.06
2023-02-12T19:28:49.881Z,67667.66
2023-02-12T19:31:19.010Z,67664.47
2023-02-12T19:33:50.705Z,67669.34
2023-02-12T19:36:21.643Z,67660.94
2023-02-12T19:38:49.359Z,67666.16
2023-02-12T19:41:21.635Z,67665.22
2023-02-12T19:43:52.303Z,67665.22
2023-02-12T19:46:20.458Z,67661.84
2023-02-12T19:48:48.450Z,67669.75
2023-02-12T19:51:17.979Z,67667.28
2023-02-12T19:53:46.075Z,67656.59
2023-02-12T19:56:13.999Z,67639.84
2023-02-12T19:58:41.959Z,67635.72
2023-02-12T20:01:10.995Z,67630.44
2023-02-12T20:03:38.837Z,67630.06
2023-02-12T20:06:09.529Z,67636.28
2023-02-12T20:08:37.884Z,67627.59
2023-02-12T20:11:10.033Z,67625.00
2023-02-12T20:13:37.434Z,67634.56
2023-02-12T20:16:07.141Z,67642.28
2023-02-12T20:18:34.853Z,67632.69
2023-02-12T20:21:08.355Z,67630.06
2023-02-12T20:23:36.001Z,67637.41
2023-02-12T20:26:05.834Z,67636.47
2023-02-12T20:28:34.497Z,67646.78
2023-02-12T20:31:22.873Z,67643.59
2023-02-12T20:33:57.850Z,67639.66
2023-02-12T20:36:25.629Z,67637.03
2023-02-12T20:38:54.122Z,67642.31
2023-02-12T20:41:21.385Z,67642.47
2023-02-12T20:43:49.136Z,67647.56
2023-02-12T20:46:20.556Z,67647.19
2023-02-12T20:48:48.105Z,67649.59
2023-02-12T20:51:16.795Z,67641.91
2023-02-12T20:53:44.650Z,67648.09
2023-02-12T20:56:22.108Z,67652.41
2023-02-12T20:58:49.646Z,67641.53
2023-02-12T21:01:22.405Z,67650.16
2023-02-12T21:03:51.619Z,67650.53
2023-02-12T21:06:20.739Z,67648.09
2023-02-12T21:08:48.208Z,67652.41
2023-02-12T21:11:22.139Z,67642.88
2023-02-12T21:14:02.261Z,67647.56
2023-02-12T21:16:35.704Z,67651.09
2023-02-12T21:19:06.560Z,67644.72
2023-02-12T21:21:35.966Z,67635.13
2023-02-12T21:24:06.251Z,67635.13
2023-02-12T21:26:34.434Z,67639.09
2023-02-12T21:29:02.990Z,67638.72
2023-02-12T21:31:37.351Z,67649.97
2023-02-12T21:34:06.434Z,67640.78
2023-02-12T21:36:42.276Z,67637.19
2023-02-12T21:39:12.762Z,67627.25
2023-02-12T21:41:41.507Z,67629.66
2023-02-12T21:44:15.176Z,67623.88
2023-02-12T21:46:42.352Z,67620.47
2023-02-12T21:49:11.782Z,67621.03
2023-02-12T21:51:41.704Z,67616.91
2023-02-12T21:54:11.619Z,67609.00
2023-02-12T21:56:40.936Z,67604.69
2023-02-12T21:59:08.715Z,67609.00
2023-02-12T22:01:39.266Z,67608.06
2023-02-12T22:04:07.482Z,67613.16
2023-02-12T22:06:39.920Z,67619.34
2023-02-12T22:09:08.833Z,67625.19
2023-02-12T22:11:37.963Z,67625.75
2023-02-12T22:14:07.259Z,67627.25
2023-02-12T22:16:36.085Z,67625.56
2023-02-12T22:19:04.545Z,67623.28
2023-02-12T22:21:35.483Z,67624.44
2023-02-12T22:24:05.182Z,67620.88
2023-02-12T22:26:33.103Z,67622.94
2023-02-12T22:29:03.572Z,67624.06
2023-02-12T22:31:33.574Z,67600.31
2023-02-12T22:34:03.350Z,67618.97
2023-02-12T22:36:31.190Z,67621.03
2023-02-12T22:38:59.307Z,67621.25
2023-02-12T22:41:28.286Z,67619.75
2023-02-12T22:43:55.675Z,67631.97
2023-02-12T22:46:23.048Z,67636.69
2023-02-12T22:48:50.237Z,67644.38
2023-02-12T22:51:22.216Z,67645.31
2023-02-12T22:53:49.495Z,67642.69
2023-02-12T22:56:17.325Z,67645.84
2023-02-12T22:58:44.722Z,67651.09
2023-02-12T23:01:14.789Z,67648.09
2023-02-12T23:03:42.361Z,67649.03
2023-02-12T23:06:19.019Z,67643.78
2023-02-12T23:08:52.879Z,67638.16
2023-02-12T23:11:20.602Z,67637.97
2023-02-12T23:13:48.847Z,67639.66
2023-02-12T23:16:16.325Z,67640.44
2023-02-12T23:18:43.976Z,67644.72
2023-02-12T23:21:11.297Z,67638.72
2023-02-12T23:23:38.424Z,67645.31
2023-02-12T23:26:05.957Z,67649.25
2023-02-12T23:28:33.188Z,67648.69
2023-02-12T23:31:00.730Z,67649.97
2023-02-12T23:33:28.132Z,67647.00
2023-02-12T23:35:55.209Z,67648.47
2023-02-12T23:38:22.481Z,67642.88
2023-02-12T23:40:49.688Z,67650.72
2023-02-12T23:43:23.535Z,67645.84
2023-02-12T23:45:50.677Z,67643.59
2023-02-12T23:48:17.753Z,67644.53
2023-02-12T23:50:47.700Z,67641.91
2023-02-12T23:53:15.951Z,67643.03
2023-02-12T23:55:43.148Z,67644.16
2023-02-12T23:58:11.510Z,67649.59
